sensor_id;sensor_type;location;lat;lon;timestamp;temperature;humidity
83729;DHT22;73707;56.480;-2.840;2024-02-21T00:02:11;8.20;98.50
83729;DHT22;73707;56.480;-2.840;2024-02-21T00:04:37;8.20;98.20
83729;DHT22;73707;56.480;-2.840;2024-02-21T00:07:05;8.20;97.70
83729;DHT22;73707;56.480;-2.840;2024-02-21T00:09:30;8.20;98.00
83729;DHT22;73707;56.480;-2.840;2024-02-21T00:11:56;8.20;97.70
83729;DHT22;73707;56.480;-2.840;2024-02-21T00:14:24;8.20;97.70
83729;DHT22;73707;56.480;-2.840;2024-02-21T00:16:49;8.20;97.80
83729;DHT22;73707;56.480;-2.840;2024-02-21T00:19:15;8.20;97.80
83729;DHT22;73707;56.480;-2.840;2024-02-21T00:21:41;8.30;97.80
83729;DHT22;73707;56.480;-2.840;2024-02-21T00:24:06;8.20;98.50
83729;DHT22;73707;56.480;-2.840;2024-02-21T00:26:32;8.30;98.60
83729;DHT22;73707;56.480;-2.840;2024-02-21T00:28:58;8.30;98.80
83729;DHT22;73707;56.480;-2.840;2024-02-21T00:31:23;8.30;98.60
83729;DHT22;73707;56.480;-2.840;2024-02-21T00:33:49;8.30;98.70
83729;DHT22;73707;56.480;-2.840;2024-02-21T00:36:16;8.30;98.30
83729;DHT22;73707;56.480;-2.840;2024-02-21T00:38:41;8.30;98.10
83729;DHT22;73707;56.480;-2.840;2024-02-21T00:41:07;8.30;98.70
83729;DHT22;73707;56.480;-2.840;2024-02-21T00:43:33;8.30;97.90
83729;DHT22;73707;56.480;-2.840;2024-02-21T00:45:59;8.10;97.20
83729;DHT22;73707;56.480;-2.840;2024-02-21T00:48:24;7.90;97.40
83729;DHT22;73707;56.480;-2.840;2024-02-21T00:50:50;7.80;97.90
83729;DHT22;73707;56.480;-2.840;2024-02-21T00:53:16;7.80;98.50
83729;DHT22;73707;56.480;-2.840;2024-02-21T00:55:41;7.80;98.30
83729;DHT22;73707;56.480;-2.840;2024-02-21T00:58:08;7.80;98.60
83729;DHT22;73707;56.480;-2.840;2024-02-21T01:00:34;7.80;98.80
83729;DHT22;73707;56.480;-2.840;2024-02-21T01:03:00;7.80;99.00
83729;DHT22;73707;56.480;-2.840;2024-02-21T01:05:25;7.90;98.90
83729;DHT22;73707;56.480;-2.840;2024-02-21T01:07:52;7.90;98.80
83729;DHT22;73707;56.480;-2.840;2024-02-21T01:10:18;7.90;99.00
83729;DHT22;73707;56.480;-2.840;2024-02-21T01:12:44;7.90;98.80
83729;DHT22;73707;56.480;-2.840;2024-02-21T01:15:09;7.90;98.80
83729;DHT22;73707;56.480;-2.840;2024-02-21T01:17:36;7.90;99.00
83729;DHT22;73707;56.480;-2.840;2024-02-21T01:20:02;7.90;99.10
83729;DHT22;73707;56.480;-2.840;2024-02-21T01:22:28;7.90;99.20
83729;DHT22;73707;56.480;-2.840;2024-02-21T01:24:54;7.90;99.20
83729;DHT22;73707;56.480;-2.840;2024-02-21T01:27:19;7.90;99.20
83729;DHT22;73707;56.480;-2.840;2024-02-21T01:29:46;7.80;99.20
83729;DHT22;73707;56.480;-2.840;2024-02-21T01:32:13;7.90;99.30
83729;DHT22;73707;56.480;-2.840;2024-02-21T01:34:38;7.90;99.20
83729;DHT22;73707;56.480;-2.840;2024-02-21T01:37:04;7.80;99.00
83729;DHT22;73707;56.480;-2.840;2024-02-21T01:39:32;7.80;99.20
83729;DHT22;73707;56.480;-2.840;2024-02-21T01:41:58;7.80;99.30
83729;DHT22;73707;56.480;-2.840;2024-02-21T01:44:24;7.70;99.30
83729;DHT22;73707;56.480;-2.840;2024-02-21T01:46:50;7.70;99.30
83729;DHT22;73707;56.480;-2.840;2024-02-21T01:49:17;7.70;99.40
83729;DHT22;73707;56.480;-2.840;2024-02-21T01:51:44;7.70;99.30
83729;DHT22;73707;56.480;-2.840;2024-02-21T01:54:14;7.70;99.40
83729;DHT22;73707;56.480;-2.840;2024-02-21T01:56:41;7.70;99.40
83729;DHT22;73707;56.480;-2.840;2024-02-21T01:59:07;7.60;99.40
83729;DHT22;73707;56.480;-2.840;2024-02-21T02:01:33;7.60;98.50
83729;DHT22;73707;56.480;-2.840;2024-02-21T02:03:59;7.60;99.20
83729;DHT22;73707;56.480;-2.840;2024-02-21T02:06:25;7.50;99.40
83729;DHT22;73707;56.480;-2.840;2024-02-21T02:08:51;7.50;99.50
83729;DHT22;73707;56.480;-2.840;2024-02-21T02:11:17;7.50;99.50
83729;DHT22;73707;56.480;-2.840;2024-02-21T02:13:42;7.50;99.50
83729;DHT22;73707;56.480;-2.840;2024-02-21T02:16:08;7.50;99.50
83729;DHT22;73707;56.480;-2.840;2024-02-21T02:18:34;7.40;99.50
83729;DHT22;73707;56.480;-2.840;2024-02-21T02:21:00;7.40;99.50
83729;DHT22;73707;56.480;-2.840;2024-02-21T02:23:32;7.40;99.60
83729;DHT22;73707;56.480;-2.840;2024-02-21T02:25:59;7.40;99.60
83729;DHT22;73707;56.480;-2.840;2024-02-21T02:28:26;7.40;99.60
83729;DHT22;73707;56.480;-2.840;2024-02-21T02:30:52;7.40;99.40
83729;DHT22;73707;56.480;-2.840;2024-02-21T02:33:18;7.30;98.80
83729;DHT22;73707;56.480;-2.840;2024-02-21T02:35:44;7.30;98.70
83729;DHT22;73707;56.480;-2.840;2024-02-21T02:38:10;7.20;98.90
83729;DHT22;73707;56.480;-2.840;2024-02-21T02:40:38;7.20;99.00
83729;DHT22;73707;56.480;-2.840;2024-02-21T02:43:04;7.20;99.10
83729;DHT22;73707;56.480;-2.840;2024-02-21T02:45:30;7.10;99.40
83729;DHT22;73707;56.480;-2.840;2024-02-21T02:47:57;7.10;99.60
83729;DHT22;73707;56.480;-2.840;2024-02-21T02:50:26;7.10;99.60
83729;DHT22;73707;56.480;-2.840;2024-02-21T02:52:53;7.20;99.70
83729;DHT22;73707;56.480;-2.840;2024-02-21T02:55:19;7.10;99.70
83729;DHT22;73707;56.480;-2.840;2024-02-21T02:57:44;7.10;99.00
83729;DHT22;73707;56.480;-2.840;2024-02-21T03:00:11;7.10;99.40
83729;DHT22;73707;56.480;-2.840;2024-02-21T03:02:38;7.10;99.60
83729;DHT22;73707;56.480;-2.840;2024-02-21T03:05:18;7.10;99.10
83729;DHT22;73707;56.480;-2.840;2024-02-21T03:07:44;7.00;99.50
83729;DHT22;73707;56.480;-2.840;2024-02-21T03:10:10;7.10;99.30
83729;DHT22;73707;56.480;-2.840;2024-02-21T03:12:36;7.00;99.50
83729;DHT22;73707;56.480;-2.840;2024-02-21T03:15:02;7.00;99.40
83729;DHT22;73707;56.480;-2.840;2024-02-21T03:17:28;7.00;99.60
83729;DHT22;73707;56.480;-2.840;2024-02-21T03:19:54;7.10;99.50
83729;DHT22;73707;56.480;-2.840;2024-02-21T03:22:21;7.00;99.70
83729;DHT22;73707;56.480;-2.840;2024-02-21T03:24:47;7.10;99.90
83729;DHT22;73707;56.480;-2.840;2024-02-21T03:27:13;7.00;99.90
83729;DHT22;73707;56.480;-2.840;2024-02-21T03:29:38;7.10;99.90
83729;DHT22;73707;56.480;-2.840;2024-02-21T03:32:04;7.00;99.90
83729;DHT22;73707;56.480;-2.840;2024-02-21T03:34:30;7.10;99.90
83729;DHT22;73707;56.480;-2.840;2024-02-21T03:36:55;7.00;99.90
83729;DHT22;73707;56.480;-2.840;2024-02-21T03:39:21;7.10;99.90
83729;DHT22;73707;56.480;-2.840;2024-02-21T03:41:47;7.00;99.90
83729;DHT22;73707;56.480;-2.840;2024-02-21T03:44:13;7.00;99.90
83729;DHT22;73707;56.480;-2.840;2024-02-21T03:46:39;7.00;99.90
83729;DHT22;73707;56.480;-2.840;2024-02-21T03:49:04;7.00;99.90
83729;DHT22;73707;56.480;-2.840;2024-02-21T03:51:30;7.00;99.90
83729;DHT22;73707;56.480;-2.840;2024-02-21T03:53:56;7.00;99.90
83729;DHT22;73707;56.480;-2.840;2024-02-21T03:56:22;7.00;99.90
83729;DHT22;73707;56.480;-2.840;2024-02-21T03:58:47;7.00;99.80
83729;DHT22;73707;56.480;-2.840;2024-02-21T04:01:15;7.00;99.90
83729;DHT22;73707;56.480;-2.840;2024-02-21T04:03:41;7.00;99.90
83729;DHT22;73707;56.480;-2.840;2024-02-21T04:06:07;7.00;99.90
83729;DHT22;73707;56.480;-2.840;2024-02-21T04:08:33;7.00;99.90
83729;DHT22;73707;56.480;-2.840;2024-02-21T04:10:59;7.00;99.90
83729;DHT22;73707;56.480;-2.840;2024-02-21T04:13:24;7.00;99.90
83729;DHT22;73707;56.480;-2.840;2024-02-21T04:15:51;7.00;99.90
83729;DHT22;73707;56.480;-2.840;2024-02-21T04:18:16;6.90;99.90
83729;DHT22;73707;56.480;-2.840;2024-02-21T04:20:42;6.90;99.90
83729;DHT22;73707;56.480;-2.840;2024-02-21T04:23:08;6.90;99.90
83729;DHT22;73707;56.480;-2.840;2024-02-21T04:25:33;6.90;99.90
83729;DHT22;73707;56.480;-2.840;2024-02-21T04:27:59;6.90;99.90
83729;DHT22;73707;56.480;-2.840;2024-02-21T04:30:25;6.90;99.90
83729;DHT22;73707;56.480;-2.840;2024-02-21T04:32:50;6.90;99.90
83729;DHT22;73707;56.480;-2.840;2024-02-21T04:35:16;6.90;99.90
83729;DHT22;73707;56.480;-2.840;2024-02-21T04:37:42;6.90;99.90
83729;DHT22;73707;56.480;-2.840;2024-02-21T04:40:08;6.90;99.90
83729;DHT22;73707;56.480;-2.840;2024-02-21T04:42:34;6.90;99.90
83729;DHT22;73707;56.480;-2.840;2024-02-21T04:45:00;6.80;99.90
83729;DHT22;73707;56.480;-2.840;2024-02-21T04:47:27;6.90;99.90
83729;DHT22;73707;56.480;-2.840;2024-02-21T04:49:52;6.80;99.90
83729;DHT22;73707;56.480;-2.840;2024-02-21T04:52:18;6.90;99.80
83729;DHT22;73707;56.480;-2.840;2024-02-21T04:54:44;6.90;99.90
83729;DHT22;73707;56.480;-2.840;2024-02-21T04:57:09;6.90;99.90
83729;DHT22;73707;56.480;-2.840;2024-02-21T04:59:45;6.90;99.90
83729;DHT22;73707;56.480;-2.840;2024-02-21T05:02:11;6.90;99.90
83729;DHT22;73707;56.480;-2.840;2024-02-21T05:04:37;7.00;99.90
83729;DHT22;73707;56.480;-2.840;2024-02-21T05:07:04;6.90;99.90
83729;DHT22;73707;56.480;-2.840;2024-02-21T05:09:30;6.90;99.90
83729;DHT22;73707;56.480;-2.840;2024-02-21T05:11:55;6.90;99.90
83729;DHT22;73707;56.480;-2.840;2024-02-21T05:14:21;6.90;99.90
83729;DHT22;73707;56.480;-2.840;2024-02-21T05:16:47;6.90;99.90
83729;DHT22;73707;56.480;-2.840;2024-02-21T05:19:12;6.90;99.90
83729;DHT22;73707;56.480;-2.840;2024-02-21T05:21:38;7.00;99.90
83729;DHT22;73707;56.480;-2.840;2024-02-21T05:24:04;6.90;99.90
83729;DHT22;73707;56.480;-2.840;2024-02-21T05:26:30;6.90;99.90
83729;DHT22;73707;56.480;-2.840;2024-02-21T05:28:55;6.90;99.90
83729;DHT22;73707;56.480;-2.840;2024-02-21T05:31:21;6.90;99.90
83729;DHT22;73707;56.480;-2.840;2024-02-21T05:33:47;6.90;99.90
83729;DHT22;73707;56.480;-2.840;2024-02-21T05:36:13;6.90;99.90
83729;DHT22;73707;56.480;-2.840;2024-02-21T05:38:39;6.90;99.90
83729;DHT22;73707;56.480;-2.840;2024-02-21T05:41:05;6.90;99.90
83729;DHT22;73707;56.480;-2.840;2024-02-21T05:43:31;6.90;99.90
83729;DHT22;73707;56.480;-2.840;2024-02-21T05:45:57;6.90;99.90
83729;DHT22;73707;56.480;-2.840;2024-02-21T05:48:23;6.90;99.90
83729;DHT22;73707;56.480;-2.840;2024-02-21T05:50:49;6.90;99.90
83729;DHT22;73707;56.480;-2.840;2024-02-21T05:53:15;6.90;99.90
83729;DHT22;73707;56.480;-2.840;2024-02-21T05:55:41;6.90;99.90
83729;DHT22;73707;56.480;-2.840;2024-02-21T05:58:07;6.90;99.90
83729;DHT22;73707;56.480;-2.840;2024-02-21T06:00:33;6.90;99.90
83729;DHT22;73707;56.480;-2.840;2024-02-21T06:02:59;6.90;99.90
83729;DHT22;73707;56.480;-2.840;2024-02-21T06:05:25;6.90;99.90
83729;DHT22;73707;56.480;-2.840;2024-02-21T06:07:50;6.90;99.90
83729;DHT22;73707;56.480;-2.840;2024-02-21T06:10:16;6.90;99.90
83729;DHT22;73707;56.480;-2.840;2024-02-21T06:12:42;6.90;99.90
83729;DHT22;73707;56.480;-2.840;2024-02-21T06:15:08;6.90;99.90
83729;DHT22;73707;56.480;-2.840;2024-02-21T06:17:34;6.90;99.90
83729;DHT22;73707;56.480;-2.840;2024-02-21T06:20:00;6.90;99.90
83729;DHT22;73707;56.480;-2.840;2024-02-21T06:22:25;6.90;99.90
83729;DHT22;73707;56.480;-2.840;2024-02-21T06:24:51;6.90;99.90
83729;DHT22;73707;56.480;-2.840;2024-02-21T06:27:18;7.00;99.90
83729;DHT22;73707;56.480;-2.840;2024-02-21T06:29:44;7.00;99.90
83729;DHT22;73707;56.480;-2.840;2024-02-21T06:32:09;7.00;99.90
83729;DHT22;73707;56.480;-2.840;2024-02-21T06:34:35;7.00;99.90
83729;DHT22;73707;56.480;-2.840;2024-02-21T06:37:01;7.00;99.90
83729;DHT22;73707;56.480;-2.840;2024-02-21T06:39:26;7.00;99.90
83729;DHT22;73707;56.480;-2.840;2024-02-21T06:41:54;7.00;99.90
83729;DHT22;73707;56.480;-2.840;2024-02-21T06:44:21;7.00;99.90
83729;DHT22;73707;56.480;-2.840;2024-02-21T06:46:46;7.00;99.90
83729;DHT22;73707;56.480;-2.840;2024-02-21T06:49:12;7.10;99.90
83729;DHT22;73707;56.480;-2.840;2024-02-21T06:51:42;7.10;99.90
83729;DHT22;73707;56.480;-2.840;2024-02-21T06:54:08;7.10;99.90
83729;DHT22;73707;56.480;-2.840;2024-02-21T06:56:35;7.10;99.90
83729;DHT22;73707;56.480;-2.840;2024-02-21T06:59:01;7.10;99.90
83729;DHT22;73707;56.480;-2.840;2024-02-21T07:01:29;7.10;99.90
83729;DHT22;73707;56.480;-2.840;2024-02-21T07:03:55;7.10;99.90
83729;DHT22;73707;56.480;-2.840;2024-02-21T07:06:20;7.20;99.90
83729;DHT22;73707;56.480;-2.840;2024-02-21T07:08:46;7.20;99.90
83729;DHT22;73707;56.480;-2.840;2024-02-21T07:11:12;7.20;99.90
83729;DHT22;73707;56.480;-2.840;2024-02-21T07:13:37;7.20;99.90
83729;DHT22;73707;56.480;-2.840;2024-02-21T07:16:03;7.20;99.90
83729;DHT22;73707;56.480;-2.840;2024-02-21T07:18:29;7.20;99.90
83729;DHT22;73707;56.480;-2.840;2024-02-21T07:20:55;7.30;99.90
83729;DHT22;73707;56.480;-2.840;2024-02-21T07:23:21;7.20;99.90
83729;DHT22;73707;56.480;-2.840;2024-02-21T07:25:46;7.30;99.90
83729;DHT22;73707;56.480;-2.840;2024-02-21T07:28:12;7.30;99.90
83729;DHT22;73707;56.480;-2.840;2024-02-21T07:30:39;7.30;99.90
83729;DHT22;73707;56.480;-2.840;2024-02-21T07:33:04;7.30;99.90
83729;DHT22;73707;56.480;-2.840;2024-02-21T07:35:30;7.30;99.90
83729;DHT22;73707;56.480;-2.840;2024-02-21T07:37:56;7.30;99.90
83729;DHT22;73707;56.480;-2.840;2024-02-21T07:40:21;7.30;99.90
83729;DHT22;73707;56.480;-2.840;2024-02-21T07:42:47;7.30;99.90
83729;DHT22;73707;56.480;-2.840;2024-02-21T07:45:13;7.30;99.90
83729;DHT22;73707;56.480;-2.840;2024-02-21T07:47:39;7.30;99.90
83729;DHT22;73707;56.480;-2.840;2024-02-21T07:50:05;7.30;99.90
83729;DHT22;73707;56.480;-2.840;2024-02-21T07:52:31;7.30;99.90
83729;DHT22;73707;56.480;-2.840;2024-02-21T07:54:57;7.20;99.90
83729;DHT22;73707;56.480;-2.840;2024-02-21T07:57:23;7.30;99.90
83729;DHT22;73707;56.480;-2.840;2024-02-21T07:59:48;7.30;99.90
83729;DHT22;73707;56.480;-2.840;2024-02-21T08:02:14;7.30;99.90
83729;DHT22;73707;56.480;-2.840;2024-02-21T08:04:40;7.30;99.90
83729;DHT22;73707;56.480;-2.840;2024-02-21T08:07:06;7.30;99.90
83729;DHT22;73707;56.480;-2.840;2024-02-21T08:09:32;7.30;99.90
83729;DHT22;73707;56.480;-2.840;2024-02-21T08:11:57;7.30;99.90
83729;DHT22;73707;56.480;-2.840;2024-02-21T08:14:23;7.30;99.90
83729;DHT22;73707;56.480;-2.840;2024-02-21T08:16:53;7.20;99.90
83729;DHT22;73707;56.480;-2.840;2024-02-21T08:19:20;7.20;99.90
83729;DHT22;73707;56.480;-2.840;2024-02-21T08:21:46;7.20;99.90
83729;DHT22;73707;56.480;-2.840;2024-02-21T08:24:15;7.20;99.90
83729;DHT22;73707;56.480;-2.840;2024-02-21T08:26:42;7.20;99.90
83729;DHT22;73707;56.480;-2.840;2024-02-21T08:29:08;7.20;99.90
83729;DHT22;73707;56.480;-2.840;2024-02-21T08:31:33;7.20;99.90
83729;DHT22;73707;56.480;-2.840;2024-02-21T08:34:00;7.20;99.90
83729;DHT22;73707;56.480;-2.840;2024-02-21T08:36:35;7.20;99.90
83729;DHT22;73707;56.480;-2.840;2024-02-21T08:39:02;7.20;99.90
83729;DHT22;73707;56.480;-2.840;2024-02-21T08:41:33;7.20;99.90
83729;DHT22;73707;56.480;-2.840;2024-02-21T08:43:59;7.20;99.90
83729;DHT22;73707;56.480;-2.840;2024-02-21T08:46:26;7.30;99.90
83729;DHT22;73707;56.480;-2.840;2024-02-21T08:48:52;7.30;99.90
83729;DHT22;73707;56.480;-2.840;2024-02-21T08:51:18;7.40;99.90
83729;DHT22;73707;56.480;-2.840;2024-02-21T08:53:45;7.40;99.90
83729;DHT22;73707;56.480;-2.840;2024-02-21T08:56:10;7.40;99.90
83729;DHT22;73707;56.480;-2.840;2024-02-21T08:58:37;7.50;99.90
83729;DHT22;73707;56.480;-2.840;2024-02-21T09:01:06;7.50;99.90
83729;DHT22;73707;56.480;-2.840;2024-02-21T09:03:38;7.60;99.90
83729;DHT22;73707;56.480;-2.840;2024-02-21T09:06:07;7.60;99.90
83729;DHT22;73707;56.480;-2.840;2024-02-21T09:08:35;7.70;99.90
83729;DHT22;73707;56.480;-2.840;2024-02-21T09:11:01;7.70;99.90
83729;DHT22;73707;56.480;-2.840;2024-02-21T09:13:27;7.80;99.90
83729;DHT22;73707;56.480;-2.840;2024-02-21T09:15:53;7.90;99.90
83729;DHT22;73707;56.480;-2.840;2024-02-21T09:18:18;7.90;99.90
83729;DHT22;73707;56.480;-2.840;2024-02-21T09:20:45;8.00;99.90
83729;DHT22;73707;56.480;-2.840;2024-02-21T09:23:11;8.00;99.90
83729;DHT22;73707;56.480;-2.840;2024-02-21T09:25:37;8.00;99.90
83729;DHT22;73707;56.480;-2.840;2024-02-21T09:28:03;8.00;99.90
83729;DHT22;73707;56.480;-2.840;2024-02-21T09:30:29;8.00;99.90
83729;DHT22;73707;56.480;-2.840;2024-02-21T09:32:55;8.00;99.90
83729;DHT22;73707;56.480;-2.840;2024-02-21T09:35:24;8.10;99.90
83729;DHT22;73707;56.480;-2.840;2024-02-21T09:37:52;8.10;99.90
83729;DHT22;73707;56.480;-2.840;2024-02-21T09:40:18;8.10;99.90
83729;DHT22;73707;56.480;-2.840;2024-02-21T09:42:44;8.10;99.90
83729;DHT22;73707;56.480;-2.840;2024-02-21T09:45:23;8.10;99.90
83729;DHT22;73707;56.480;-2.840;2024-02-21T09:50:34;8.20;99.90
83729;DHT22;73707;56.480;-2.840;2024-02-21T09:53:02;8.20;99.90
83729;DHT22;73707;56.480;-2.840;2024-02-21T09:55:31;8.30;99.90
83729;DHT22;73707;56.480;-2.840;2024-02-21T09:58:03;8.30;99.90
83729;DHT22;73707;56.480;-2.840;2024-02-21T10:00:30;8.40;99.90
83729;DHT22;73707;56.480;-2.840;2024-02-21T10:02:55;8.40;99.90
83729;DHT22;73707;56.480;-2.840;2024-02-21T10:05:21;8.40;99.90
83729;DHT22;73707;56.480;-2.840;2024-02-21T10:07:48;8.50;99.90
83729;DHT22;73707;56.480;-2.840;2024-02-21T10:10:15;8.50;99.90
83729;DHT22;73707;56.480;-2.840;2024-02-21T10:12:49;8.50;99.90
83729;DHT22;73707;56.480;-2.840;2024-02-21T10:15:20;8.60;99.90
83729;DHT22;73707;56.480;-2.840;2024-02-21T10:17:47;8.60;99.90
83729;DHT22;73707;56.480;-2.840;2024-02-21T10:20:12;8.60;99.90
83729;DHT22;73707;56.480;-2.840;2024-02-21T10:22:40;8.70;99.90
83729;DHT22;73707;56.480;-2.840;2024-02-21T10:25:12;8.70;99.90
83729;DHT22;73707;56.480;-2.840;2024-02-21T10:27:39;8.80;99.90
83729;DHT22;73707;56.480;-2.840;2024-02-21T10:30:12;8.90;99.90
83729;DHT22;73707;56.480;-2.840;2024-02-21T10:32:49;9.00;99.90
83729;DHT22;73707;56.480;-2.840;2024-02-21T10:35:32;9.10;99.90
83729;DHT22;73707;56.480;-2.840;2024-02-21T10:37:59;9.20;99.90
83729;DHT22;73707;56.480;-2.840;2024-02-21T10:40:26;9.40;99.90
83729;DHT22;73707;56.480;-2.840;2024-02-21T10:42:57;9.40;99.90
83729;DHT22;73707;56.480;-2.840;2024-02-21T10:45:30;9.50;99.90
83729;DHT22;73707;56.480;-2.840;2024-02-21T10:48:06;9.40;99.90
83729;DHT22;73707;56.480;-2.840;2024-02-21T10:50:53;9.50;99.90
83729;DHT22;73707;56.480;-2.840;2024-02-21T10:53:56;9.50;99.90
83729;DHT22;73707;56.480;-2.840;2024-02-21T10:56:33;9.50;99.90
83729;DHT22;73707;56.480;-2.840;2024-02-21T10:59:04;9.60;99.90
83729;DHT22;73707;56.480;-2.840;2024-02-21T11:01:31;9.70;99.90
83729;DHT22;73707;56.480;-2.840;2024-02-21T11:04:08;9.70;99.90
83729;DHT22;73707;56.480;-2.840;2024-02-21T11:06:36;9.70;99.90
83729;DHT22;73707;56.480;-2.840;2024-02-21T11:09:03;9.70;99.90
83729;DHT22;73707;56.480;-2.840;2024-02-21T11:11:45;9.70;99.90
83729;DHT22;73707;56.480;-2.840;2024-02-21T11:14:18;9.70;99.90
83729;DHT22;73707;56.480;-2.840;2024-02-21T11:16:44;9.80;99.90
83729;DHT22;73707;56.480;-2.840;2024-02-21T11:19:22;9.80;99.90
83729;DHT22;73707;56.480;-2.840;2024-02-21T11:21:49;9.80;99.90
83729;DHT22;73707;56.480;-2.840;2024-02-21T11:24:36;9.80;99.90
83729;DHT22;73707;56.480;-2.840;2024-02-21T11:29:49;9.70;99.90
83729;DHT22;73707;56.480;-2.840;2024-02-21T11:32:17;9.70;99.90
83729;DHT22;73707;56.480;-2.840;2024-02-21T11:35:03;9.70;99.90
83729;DHT22;73707;56.480;-2.840;2024-02-21T11:37:31;9.80;99.90
83729;DHT22;73707;56.480;-2.840;2024-02-21T11:40:03;9.70;99.90
83729;DHT22;73707;56.480;-2.840;2024-02-21T11:42:29;9.80;99.90
83729;DHT22;73707;56.480;-2.840;2024-02-21T11:44:59;9.80;99.90
83729;DHT22;73707;56.480;-2.840;2024-02-21T11:47:27;9.80;99.90
83729;DHT22;73707;56.480;-2.840;2024-02-21T11:49:54;9.80;99.90
83729;DHT22;73707;56.480;-2.840;2024-02-21T11:52:22;9.80;99.90
83729;DHT22;73707;56.480;-2.840;2024-02-21T11:54:51;9.80;99.90
83729;DHT22;73707;56.480;-2.840;2024-02-21T11:57:17;9.80;99.90
83729;DHT22;73707;56.480;-2.840;2024-02-21T11:59:44;9.80;99.90
83729;DHT22;73707;56.480;-2.840;2024-02-21T12:02:11;9.80;99.90
83729;DHT22;73707;56.480;-2.840;2024-02-21T12:04:37;9.80;99.90
83729;DHT22;73707;56.480;-2.840;2024-02-21T12:07:02;9.80;99.90
83729;DHT22;73707;56.480;-2.840;2024-02-21T12:09:31;9.90;99.90
83729;DHT22;73707;56.480;-2.840;2024-02-21T12:12:04;9.90;99.90
83729;DHT22;73707;56.480;-2.840;2024-02-21T12:14:31;10.00;99.90
83729;DHT22;73707;56.480;-2.840;2024-02-21T12:16:58;10.10;99.90
83729;DHT22;73707;56.480;-2.840;2024-02-21T12:19:24;10.30;99.90
83729;DHT22;73707;56.480;-2.840;2024-02-21T12:21:49;10.40;99.90
83729;DHT22;73707;56.480;-2.840;2024-02-21T12:24:22;10.50;99.90
83729;DHT22;73707;56.480;-2.840;2024-02-21T12:26:52;10.70;99.90
83729;DHT22;73707;56.480;-2.840;2024-02-21T12:29:19;10.70;99.90
83729;DHT22;73707;56.480;-2.840;2024-02-21T12:31:44;10.80;99.90
83729;DHT22;73707;56.480;-2.840;2024-02-21T12:34:10;10.90;99.90
83729;DHT22;73707;56.480;-2.840;2024-02-21T12:36:41;11.00;99.90
83729;DHT22;73707;56.480;-2.840;2024-02-21T12:39:10;11.10;99.90
83729;DHT22;73707;56.480;-2.840;2024-02-21T12:41:37;11.20;99.90
83729;DHT22;73707;56.480;-2.840;2024-02-21T12:44:07;11.20;99.90
83729;DHT22;73707;56.480;-2.840;2024-02-21T12:46:36;11.30;99.90
83729;DHT22;73707;56.480;-2.840;2024-02-21T12:49:02;11.40;99.90
83729;DHT22;73707;56.480;-2.840;2024-02-21T12:51:29;11.40;99.90
83729;DHT22;73707;56.480;-2.840;2024-02-21T12:53:55;11.50;99.90
83729;DHT22;73707;56.480;-2.840;2024-02-21T12:56:21;11.50;99.90
83729;DHT22;73707;56.480;-2.840;2024-02-21T12:58:46;11.60;99.90
83729;DHT22;73707;56.480;-2.840;2024-02-21T13:01:12;11.70;99.90
83729;DHT22;73707;56.480;-2.840;2024-02-21T13:03:38;11.70;99.90
83729;DHT22;73707;56.480;-2.840;2024-02-21T13:06:04;11.70;99.90
83729;DHT22;73707;56.480;-2.840;2024-02-21T13:08:30;11.90;99.90
83729;DHT22;73707;56.480;-2.840;2024-02-21T13:10:56;11.90;99.90
83729;DHT22;73707;56.480;-2.840;2024-02-21T13:13:22;12.00;99.90
83729;DHT22;73707;56.480;-2.840;2024-02-21T13:15:48;12.00;99.90
83729;DHT22;73707;56.480;-2.840;2024-02-21T13:18:13;12.00;99.90
83729;DHT22;73707;56.480;-2.840;2024-02-21T13:20:39;12.10;99.90
83729;DHT22;73707;56.480;-2.840;2024-02-21T13:23:05;12.10;99.90
83729;DHT22;73707;56.480;-2.840;2024-02-21T13:25:30;12.10;99.90
83729;DHT22;73707;56.480;-2.840;2024-02-21T13:27:56;12.20;99.90
83729;DHT22;73707;56.480;-2.840;2024-02-21T13:30:22;12.20;99.90
83729;DHT22;73707;56.480;-2.840;2024-02-21T13:32:48;12.20;99.90
83729;DHT22;73707;56.480;-2.840;2024-02-21T13:35:14;12.30;99.90
83729;DHT22;73707;56.480;-2.840;2024-02-21T13:37:40;12.30;99.90
83729;DHT22;73707;56.480;-2.840;2024-02-21T13:40:07;12.40;99.90
83729;DHT22;73707;56.480;-2.840;2024-02-21T13:42:35;12.40;99.90
83729;DHT22;73707;56.480;-2.840;2024-02-21T13:45:00;12.40;99.90
83729;DHT22;73707;56.480;-2.840;2024-02-21T13:47:27;12.40;99.90
83729;DHT22;73707;56.480;-2.840;2024-02-21T13:49:53;12.40;99.90
83729;DHT22;73707;56.480;-2.840;2024-02-21T13:52:18;12.40;99.90
83729;DHT22;73707;56.480;-2.840;2024-02-21T13:54:47;12.50;99.90
83729;DHT22;73707;56.480;-2.840;2024-02-21T13:57:13;12.50;99.90
83729;DHT22;73707;56.480;-2.840;2024-02-21T13:59:40;12.60;99.90
83729;DHT22;73707;56.480;-2.840;2024-02-21T14:02:05;12.70;99.90
83729;DHT22;73707;56.480;-2.840;2024-02-21T14:04:34;12.70;99.90
83729;DHT22;73707;56.480;-2.840;2024-02-21T14:07:00;12.80;99.90
83729;DHT22;73707;56.480;-2.840;2024-02-21T14:09:26;12.90;99.90
83729;DHT22;73707;56.480;-2.840;2024-02-21T14:11:55;13.00;99.90
83729;DHT22;73707;56.480;-2.840;2024-02-21T14:14:21;13.10;99.90
83729;DHT22;73707;56.480;-2.840;2024-02-21T14:16:46;13.20;99.90
83729;DHT22;73707;56.480;-2.840;2024-02-21T14:19:15;13.20;99.90
83729;DHT22;73707;56.480;-2.840;2024-02-21T14:21:41;13.30;99.90
83729;DHT22;73707;56.480;-2.840;2024-02-21T14:24:07;13.30;99.90
83729;DHT22;73707;56.480;-2.840;2024-02-21T14:26:33;13.30;99.90
83729;DHT22;73707;56.480;-2.840;2024-02-21T14:28:59;13.40;99.90
83729;DHT22;73707;56.480;-2.840;2024-02-21T14:31:25;13.40;99.90
83729;DHT22;73707;56.480;-2.840;2024-02-21T14:33:51;13.40;99.90
83729;DHT22;73707;56.480;-2.840;2024-02-21T14:36:17;13.40;99.90
83729;DHT22;73707;56.480;-2.840;2024-02-21T14:38:44;13.40;99.90
83729;DHT22;73707;56.480;-2.840;2024-02-21T14:41:10;13.50;99.90
83729;DHT22;73707;56.480;-2.840;2024-02-21T14:43:38;13.50;99.90
83729;DHT22;73707;56.480;-2.840;2024-02-21T14:46:04;13.50;99.90
83729;DHT22;73707;56.480;-2.840;2024-02-21T14:48:31;13.50;99.90
83729;DHT22;73707;56.480;-2.840;2024-02-21T14:50:58;13.50;99.90
83729;DHT22;73707;56.480;-2.840;2024-02-21T14:53:23;13.60;99.90
83729;DHT22;73707;56.480;-2.840;2024-02-21T14:55:49;13.60;99.90
83729;DHT22;73707;56.480;-2.840;2024-02-21T14:58:16;13.60;99.90
83729;DHT22;73707;56.480;-2.840;2024-02-21T15:00:43;13.60;99.90
83729;DHT22;73707;56.480;-2.840;2024-02-21T15:03:09;13.60;99.90
83729;DHT22;73707;56.480;-2.840;2024-02-21T15:05:36;13.70;99.90
83729;DHT22;73707;56.480;-2.840;2024-02-21T15:08:02;13.70;99.90
83729;DHT22;73707;56.480;-2.840;2024-02-21T15:10:28;13.80;99.90
83729;DHT22;73707;56.480;-2.840;2024-02-21T15:12:54;13.80;99.90
83729;DHT22;73707;56.480;-2.840;2024-02-21T15:15:20;13.90;99.90
83729;DHT22;73707;56.480;-2.840;2024-02-21T15:17:45;13.90;99.90
83729;DHT22;73707;56.480;-2.840;2024-02-21T15:20:11;14.00;99.90
83729;DHT22;73707;56.480;-2.840;2024-02-21T15:22:37;14.00;99.90
83729;DHT22;73707;56.480;-2.840;2024-02-21T15:25:03;14.00;99.90
83729;DHT22;73707;56.480;-2.840;2024-02-21T15:27:30;14.00;99.90
83729;DHT22;73707;56.480;-2.840;2024-02-21T15:29:56;14.10;99.90
83729;DHT22;73707;56.480;-2.840;2024-02-21T15:32:23;14.10;99.90